createdAt,value
2019-04-07T00:03:13.958Z,82.92
2019-04-07T00:05:44.934Z,83.17
2019-04-07T00:08:15.791Z,79.58
2019-04-07T00:10:46.858Z,75.80
2019-04-07T00:13:18.334Z,75.57
2019-04-07T00:15:49.138Z,77.72
2019-04-07T00:18:20.348Z,72.40
2019-04-07T00:20:51.298Z,75.52
2019-04-07T00:23:22.695Z,68.92
2019-04-07T00:25:53.542Z,66.97
2019-04-07T00:28:24.430Z,78.55
2019-04-07T00:30:55.147Z,64.15
2019-04-07T00:33:25.938Z,71.62
2019-04-07T00:35:56.935Z,76.77
2019-04-07T00:38:28.354Z,70.80
2019-04-07T00:40:59.320Z,69.40
2019-04-07T00:43:30.976Z,67.78
2019-04-07T00:46:02.347Z,66.57
2019-04-07T00:48:33.329Z,80.67
2019-04-07T00:51:06.648Z,65.42
2019-04-07T00:53:37.604Z,65.90
2019-04-07T00:56:09.300Z,62.50
2019-04-07T00:58:40.232Z,59.45
2019-04-07T01:01:12.859Z,63.20
2019-04-07T01:03:44.470Z,61.85
2019-04-07T01:06:16.531Z,62.88
2019-04-07T01:08:47.829Z,60.73
2019-04-07T01:11:18.957Z,56.60
2019-04-07T01:13:50.532Z,65.67
2019-04-07T01:16:21.955Z,57.35
2019-04-07T01:18:53.465Z,57.93
2019-04-07T01:21:24.919Z,50.20
2019-04-07T01:23:56.033Z,56.23
2019-04-07T01:26:26.687Z,52.48
2019-04-07T01:28:59.528Z,51.33
2019-04-07T01:31:30.835Z,52.15
2019-04-07T01:34:02.159Z,45.50
2019-04-07T01:36:33.790Z,53.45
2019-04-07T01:39:06.440Z,53.58
2019-04-07T01:41:38.808Z,48.98
2019-04-07T01:44:11.337Z,52.27
2019-04-07T01:46:43.408Z,50.85
2019-04-07T01:49:15.847Z,57.58
2019-04-07T01:51:48.739Z,56.28
2019-04-07T01:54:21.053Z,48.65
2019-04-07T01:56:51.679Z,53.65
2019-04-07T01:59:24.226Z,57.00
2019-04-07T02:01:57.112Z,63.60
2019-04-07T02:04:29.704Z,66.92
2019-04-07T02:07:01.859Z,48.17
2019-04-07T02:09:34.075Z,42.67
2019-04-07T02:12:06.908Z,60.60
2019-04-07T02:14:39.412Z,46.15
2019-04-07T02:17:12.038Z,50.63
2019-04-07T02:19:44.886Z,50.25
2019-04-07T02:22:17.079Z,48.68
2019-04-07T02:24:49.863Z,51.23
2019-04-07T02:27:21.974Z,50.30
2019-04-07T02:29:54.213Z,51.85
2019-04-07T02:32:27.613Z,49.00
2019-04-07T02:34:59.995Z,53.52
2019-04-07T02:37:32.128Z,51.80
2019-04-07T02:40:05.016Z,53.83
2019-04-07T02:42:38.368Z,50.65
2019-04-07T02:45:09.504Z,69.75
2019-04-07T02:47:43.363Z,66.15
2019-04-07T02:50:15.758Z,60.25
2019-04-07T02:52:47.999Z,58.68
2019-04-07T02:55:20.123Z,71.22
2019-04-07T02:57:52.214Z,64.22
2019-04-07T03:00:24.756Z,64.20
2019-04-07T03:02:58.001Z,57.73
2019-04-07T03:05:30.653Z,77.10
2019-04-07T03:08:01.575Z,66.33
2019-04-07T03:10:33.770Z,63.40
2019-04-07T03:13:06.218Z,68.65
2019-04-07T03:15:39.368Z,68.90
2019-04-07T03:18:11.934Z,69.80
2019-04-07T03:20:45.480Z,72.30
2019-04-07T03:23:17.725Z,65.62
2019-04-07T03:25:49.928Z,68.62
2019-04-07T03:28:21.406Z,58.87
2019-04-07T03:30:54.717Z,49.40
2019-04-07T03:33:28.435Z,50.38
2019-04-07T03:36:02.637Z,48.52
2019-04-07T03:38:34.123Z,45.73
2019-04-07T03:41:06.320Z,44.45
2019-04-07T03:43:38.325Z,44.95
2019-04-07T03:46:09.018Z,44.05
2019-04-07T03:48:41.631Z,46.20
2019-04-07T03:51:15.021Z,44.10
2019-04-07T03:53:47.480Z,49.05
2019-04-07T03:56:18.108Z,46.45
2019-04-07T03:58:50.732Z,43.92
2019-04-07T04:01:22.825Z,42.00
2019-04-07T04:03:55.346Z,38.08
2019-04-07T04:06:28.193Z,42.62
2019-04-07T04:09:00.529Z,45.05
2019-04-07T04:11:32.825Z,45.80
2019-04-07T04:14:05.558Z,45.65
2019-04-07T04:16:37.792Z,43.50
2019-04-07T04:19:08.567Z,37.80
2019-04-07T04:21:40.386Z,38.23
2019-04-07T04:24:12.182Z,40.60
2019-04-07T04:26:44.029Z,33.78
2019-04-07T04:29:15.645Z,35.08
2019-04-07T04:31:47.296Z,34.20
2019-04-07T04:34:18.060Z,42.55
2019-04-07T04:36:50.093Z,42.80
2019-04-07T04:39:21.254Z,49.98
2019-04-07T04:41:52.164Z,43.87
2019-04-07T04:44:24.027Z,40.17
2019-04-07T04:46:54.964Z,32.08
2019-04-07T04:49:26.889Z,30.82
2019-04-07T04:51:58.545Z,41.33
2019-04-07T04:54:29.745Z,35.88
2019-04-07T04:57:04.100Z,36.77
2019-04-07T04:59:33.296Z,33.98
2019-04-07T05:02:04.542Z,30.08
2019-04-07T05:04:35.647Z,30.27
2019-04-07T05:07:06.496Z,25.80
2019-04-07T05:09:44.312Z,29.82
2019-04-07T05:12:10.118Z,33.42
2019-04-07T05:14:41.339Z,49.10
2019-04-07T05:17:12.655Z,61.50
2019-04-07T05:19:43.499Z,38.20
2019-04-07T05:22:14.506Z,30.35
2019-04-07T05:24:46.675Z,31.12
2019-04-07T05:27:17.687Z,32.03
2019-04-07T05:29:49.421Z,33.65
2019-04-07T05:32:20.193Z,38.50
2019-04-07T05:34:51.095Z,36.80
2019-04-07T05:37:21.995Z,40.40
2019-04-07T05:39:52.768Z,31.27
2019-04-07T05:42:23.722Z,36.93
2019-04-07T05:44:55.123Z,47.67
2019-04-07T05:47:26.655Z,37.33
2019-04-07T05:49:59.350Z,32.00
2019-04-07T05:52:30.581Z,29.60
2019-04-07T05:55:01.497Z,34.08
2019-04-07T05:57:34.778Z,53.28
2019-04-07T06:00:05.831Z,32.93
2019-04-07T06:02:37.436Z,29.87
2019-04-07T06:05:09.768Z,41.33
2019-04-07T06:07:41.484Z,37.08
2019-04-07T06:10:13.328Z,38.38
2019-04-07T06:12:46.971Z,34.45
2019-04-07T06:15:21.985Z,28.57
2019-04-07T06:17:51.312Z,34.55
2019-04-07T06:20:22.556Z,32.40
2019-04-07T06:22:54.462Z,31.62
2019-04-07T06:25:25.462Z,28.52
2019-04-07T06:27:56.823Z,27.40
2019-04-07T06:30:30.274Z,24.57
2019-04-07T06:33:00.660Z,25.52
2019-04-07T06:35:32.412Z,25.95
2019-04-07T06:38:06.655Z,31.80
2019-04-07T06:40:35.425Z,24.80
2019-04-07T06:43:06.348Z,25.25
2019-04-07T06:45:38.800Z,27.40
2019-04-07T06:48:13.543Z,34.38
2019-04-07T06:50:48.606Z,22.60
2019-04-07T06:53:19.685Z,33.33
2019-04-07T06:55:50.902Z,26.02
2019-04-07T06:58:23.027Z,30.08
2019-04-07T07:00:55.964Z,24.82
2019-04-07T07:03:29.114Z,29.27
2019-04-07T07:06:01.369Z,31.35
2019-04-07T07:08:42.506Z,25.60
2019-04-07T07:11:08.311Z,29.02
2019-04-07T07:13:43.101Z,32.33
2019-04-07T07:16:15.731Z,41.68
2019-04-07T07:18:47.891Z,29.45
2019-04-07T07:21:23.537Z,41.63
2019-04-07T07:23:53.091Z,29.77
2019-04-07T07:26:24.432Z,26.68
2019-04-07T07:28:55.968Z,27.58
2019-04-07T07:31:29.228Z,27.48
2019-04-07T07:34:00.342Z,23.22
2019-04-07T07:36:34.957Z,24.07
2019-04-07T07:39:10.253Z,27.82
2019-04-07T07:41:40.950Z,36.95
2019-04-07T07:44:11.860Z,35.95
2019-04-07T07:46:43.194Z,31.52
2019-04-07T07:49:14.723Z,34.85
2019-04-07T07:51:47.926Z,54.42
2019-04-07T07:54:18.271Z,32.55
2019-04-07T07:56:51.156Z,24.12
2019-04-07T07:59:21.797Z,24.80
2019-04-07T08:01:53.525Z,24.18
2019-04-07T08:04:26.505Z,29.85
2019-04-07T08:06:56.919Z,26.57
2019-04-07T08:09:28.319Z,31.33
2019-04-07T08:12:02.434Z,34.15
2019-04-07T08:14:31.577Z,30.45
2019-04-07T08:17:03.450Z,27.30
2019-04-07T08:19:34.842Z,31.97
2019-04-07T08:22:07.616Z,34.18
2019-04-07T08:24:37.895Z,27.20
2019-04-07T08:27:08.906Z,28.00
2019-04-07T08:29:46.223Z,26.85
2019-04-07T08:32:17.633Z,31.95
2019-04-07T08:34:49.289Z,32.50
2019-04-07T08:37:21.245Z,26.02
2019-04-07T08:39:52.597Z,29.27
2019-04-07T08:42:23.566Z,26.65
2019-04-07T08:44:57.185Z,32.55
2019-04-07T08:47:26.736Z,28.23
2019-04-07T08:49:57.940Z,29.45
2019-04-07T08:52:34.342Z,27.32
2019-04-07T08:55:07.323Z,31.85
2019-04-07T08:57:38.636Z,26.40
2019-04-07T09:00:15.606Z,25.68
2019-04-07T09:02:45.092Z,27.42
2019-04-07T09:05:24.204Z,25.77
2019-04-07T09:07:50.743Z,24.75
2019-04-07T09:10:22.999Z,26.70
2019-04-07T09:12:54.334Z,27.87
2019-04-07T09:15:27.012Z,25.92
2019-04-07T09:17:59.450Z,29.55
2019-04-07T09:20:31.522Z,27.15
2019-04-07T09:23:03.716Z,28.98
2019-04-07T09:25:39.004Z,28.62
2019-04-07T09:28:10.019Z,26.62
2019-04-07T09:30:40.846Z,28.57
2019-04-07T09:33:13.630Z,27.70
2019-04-07T09:35:45.897Z,29.45
2019-04-07T09:38:18.013Z,30.48
2019-04-07T09:40:50.620Z,32.63
2019-04-07T09:43:22.927Z,27.75
2019-04-07T09:45:54.945Z,27.45
2019-04-07T09:48:27.792Z,31.27
2019-04-07T09:51:05.693Z,34.88
2019-04-07T09:53:33.794Z,25.92
2019-04-07T09:56:08.581Z,34.45
2019-04-07T09:58:41.652Z,47.83
2019-04-07T10:01:12.088Z,29.07
2019-04-07T10:03:44.550Z,36.08
2019-04-07T10:06:17.069Z,39.25
2019-04-07T10:08:49.782Z,33.10
2019-04-07T10:11:22.038Z,34.85
2019-04-07T10:13:54.283Z,35.85
2019-04-07T10:16:26.990Z,37.73
2019-04-07T10:18:59.338Z,31.82
2019-04-07T10:21:31.442Z,39.70
2019-04-07T10:24:03.474Z,35.05
2019-04-07T10:26:36.198Z,36.45
2019-04-07T10:29:08.681Z,35.90
2019-04-07T10:31:40.916Z,32.20
2019-04-07T10:34:13.511Z,34.38
2019-04-07T10:36:45.685Z,35.28
2019-04-07T10:39:18.621Z,32.15
2019-04-07T10:41:50.794Z,34.23
2019-04-07T10:44:22.819Z,28.05
2019-04-07T10:46:55.023Z,32.38
2019-04-07T10:49:26.187Z,36.08
2019-04-07T10:51:57.041Z,31.95
2019-04-07T10:54:29.271Z,41.37
2019-04-07T10:57:00.060Z,43.52
2019-04-07T10:59:32.206Z,39.98
2019-04-07T11:02:04.390Z,34.80
2019-04-07T11:04:37.538Z,34.95
2019-04-07T11:07:10.479Z,35.48
2019-04-07T11:09:41.765Z,34.85
2019-04-07T11:12:14.337Z,31.90
2019-04-07T11:14:46.734Z,31.30
2019-04-07T11:17:19.391Z,32.98
2019-04-07T11:19:51.466Z,46.68
2019-04-07T11:22:23.625Z,37.67
2019-04-07T11:24:55.791Z,35.80
2019-04-07T11:27:29.376Z,34.45
2019-04-07T11:30:01.628Z,34.65
2019-04-07T11:32:33.846Z,40.38
2019-04-07T11:35:06.035Z,39.23
2019-04-07T11:37:38.194Z,39.98
2019-04-07T11:40:10.698Z,37.63
2019-04-07T11:42:42.828Z,44.08
2019-04-07T11:45:16.014Z,45.95
2019-04-07T11:47:48.183Z,45.67
2019-04-07T11:50:21.202Z,50.88
2019-04-07T11:52:53.372Z,66.15
2019-04-07T11:55:26.807Z,42.53
2019-04-07T11:58:09.508Z,41.48
2019-04-07T12:00:33.288Z,38.55
2019-04-07T12:03:06.102Z,42.60
2019-04-07T12:05:38.220Z,37.35
2019-04-07T12:08:10.546Z,36.48
2019-04-07T12:10:54.661Z,39.25
2019-04-07T12:13:16.499Z,35.55
2019-04-07T12:15:48.765Z,45.52
2019-04-07T12:18:21.444Z,40.60
2019-04-07T12:20:53.760Z,37.13
2019-04-07T12:23:27.476Z,32.63
2019-04-07T12:26:00.106Z,38.42
2019-04-07T12:28:33.406Z,36.85
2019-04-07T12:31:06.451Z,33.02
2019-04-07T12:33:39.332Z,31.90
2019-04-07T12:36:12.941Z,38.48
2019-04-07T12:38:45.970Z,43.23
2019-04-07T12:41:21.860Z,42.70
2019-04-07T12:43:52.229Z,35.80
2019-04-07T12:46:24.578Z,31.05
2019-04-07T12:48:57.493Z,34.78
2019-04-07T12:51:28.781Z,31.95
2019-04-07T12:54:01.808Z,35.35
2019-04-07T12:56:34.378Z,32.00
2019-04-07T12:59:06.903Z,35.23
2019-04-07T13:01:41.300Z,35.98
2019-04-07T13:04:11.163Z,34.23
2019-04-07T13:06:44.259Z,37.25
2019-04-07T13:09:16.048Z,41.63
2019-04-07T13:11:50.027Z,42.53
2019-04-07T13:14:23.792Z,42.88
2019-04-07T13:16:56.453Z,39.23
2019-04-07T13:19:29.667Z,39.23
2019-04-07T13:22:02.965Z,38.78
2019-04-07T13:24:38.851Z,52.88
2019-04-07T13:27:10.195Z,39.03
2019-04-07T13:29:43.283Z,43.73
2019-04-07T13:32:15.640Z,39.55
2019-04-07T13:34:49.771Z,45.17
2019-04-07T13:37:24.035Z,37.78
2019-04-07T13:39:56.654Z,36.03
2019-04-07T13:42:29.265Z,38.08
2019-04-07T13:45:03.882Z,34.70
2019-04-07T13:47:38.657Z,37.20
2019-04-07T13:50:10.541Z,39.58
2019-04-07T13:52:45.407Z,32.45
2019-04-07T13:55:18.355Z,30.82
2019-04-07T13:57:52.574Z,26.70
2019-04-07T14:00:25.163Z,29.20
2019-04-07T14:02:58.742Z,29.00
2019-04-07T14:05:30.975Z,23.80
2019-04-07T14:08:03.976Z,21.52
2019-04-07T14:10:37.242Z,20.40
2019-04-07T14:13:10.415Z,20.08
2019-04-07T14:15:43.163Z,22.20
2019-04-07T14:18:15.510Z,23.22
2019-04-07T14:20:48.532Z,22.82
2019-04-07T14:23:22.604Z,27.73
2019-04-07T14:25:54.977Z,29.77
2019-04-07T14:28:26.616Z,29.23
2019-04-07T14:30:58.915Z,34.23
2019-04-07T14:33:31.819Z,36.00
2019-04-07T14:36:04.335Z,33.78
2019-04-07T14:38:35.576Z,27.95
2019-04-07T14:41:08.522Z,44.95
2019-04-07T14:43:40.918Z,35.30
2019-04-07T14:46:12.934Z,28.15
2019-04-07T14:48:45.119Z,25.62
2019-04-07T14:51:17.654Z,22.85
2019-04-07T14:53:49.884Z,23.00
2019-04-07T14:56:22.049Z,28.42
2019-04-07T14:58:54.085Z,31.07
2019-04-07T15:01:26.190Z,30.37
2019-04-07T15:03:57.167Z,30.00
2019-04-07T15:06:30.939Z,24.47
2019-04-07T15:09:04.644Z,22.10
2019-04-07T15:11:35.765Z,26.12
2019-04-07T15:14:06.812Z,21.75
2019-04-07T15:16:38.268Z,33.65
2019-04-07T15:19:09.612Z,30.80
2019-04-07T15:21:41.157Z,23.87
2019-04-07T15:24:12.004Z,27.73
2019-04-07T15:26:46.632Z,25.00
2019-04-07T15:29:14.759Z,24.67
2019-04-07T15:31:48.953Z,24.02
2019-04-07T15:34:18.710Z,28.77
2019-04-07T15:36:50.922Z,29.15
2019-04-07T15:39:22.610Z,25.37
2019-04-07T15:41:53.516Z,27.00
2019-04-07T15:44:24.826Z,26.87
2019-04-07T15:46:56.576Z,22.35
2019-04-07T15:49:28.300Z,25.12
2019-04-07T15:52:00.579Z,23.85
2019-04-07T15:54:31.752Z,24.95
2019-04-07T15:57:03.611Z,22.45
2019-04-07T15:59:35.316Z,19.87
2019-04-07T16:02:08.507Z,17.32
2019-04-07T16:04:38.733Z,15.58
2019-04-07T16:07:10.258Z,16.45
2019-04-07T16:09:50.790Z,15.45
2019-04-07T16:12:14.453Z,18.92
2019-04-07T16:14:46.982Z,16.70
2019-04-07T16:17:17.738Z,16.17
2019-04-07T16:19:53.105Z,16.32
2019-04-07T16:22:21.471Z,16.17
2019-04-07T16:24:55.086Z,18.17
2019-04-07T16:27:24.434Z,15.88
2019-04-07T16:29:55.826Z,13.88
2019-04-07T16:32:28.843Z,15.98
2019-04-07T16:34:59.449Z,13.65
2019-04-07T16:37:31.060Z,18.35
2019-04-07T16:40:06.280Z,15.23
2019-04-07T16:42:34.933Z,16.30
2019-04-07T16:45:11.332Z,18.42
2019-04-07T16:47:39.002Z,16.42
2019-04-07T16:50:11.066Z,17.62
2019-04-07T16:52:43.100Z,17.52
2019-04-07T16:55:17.124Z,18.92
2019-04-07T16:57:48.743Z,17.48
2019-04-07T17:00:20.214Z,19.35
2019-04-07T17:02:51.305Z,17.57
2019-04-07T17:05:24.331Z,16.25
2019-04-07T17:07:56.553Z,16.93
2019-04-07T17:10:32.392Z,19.65
2019-04-07T17:13:00.835Z,16.52
2019-04-07T17:15:32.730Z,16.93
2019-04-07T17:18:06.964Z,20.10
2019-04-07T17:20:38.154Z,18.13
2019-04-07T17:23:09.394Z,18.27
2019-04-07T17:25:40.296Z,22.52
2019-04-07T17:28:13.580Z,17.42
2019-04-07T17:30:44.407Z,18.50
2019-04-07T17:33:15.828Z,18.07
2019-04-07T17:35:47.471Z,18.45
2019-04-07T17:38:20.309Z,18.90
2019-04-07T17:40:51.930Z,16.77
2019-04-07T17:43:28.734Z,17.80
2019-04-07T17:45:58.313Z,18.60
2019-04-07T17:48:38.525Z,21.15
2019-04-07T17:51:07.383Z,20.60
2019-04-07T17:53:38.608Z,21.33
2019-04-07T17:56:10.937Z,18.85
2019-04-07T17:58:44.220Z,27.90
2019-04-07T18:01:20.602Z,24.43
2019-04-07T18:03:50.763Z,21.20
2019-04-07T18:06:23.992Z,24.07
2019-04-07T18:09:05.732Z,25.75
2019-04-07T18:11:30.177Z,27.58
2019-04-07T18:14:02.386Z,27.02
2019-04-07T18:16:35.278Z,23.73
2019-04-07T18:19:07.427Z,23.12
2019-04-07T18:21:39.771Z,24.67
2019-04-07T18:24:12.522Z,23.57
2019-04-07T18:26:45.271Z,23.80
2019-04-07T18:29:18.210Z,22.87
2019-04-07T18:31:50.924Z,20.17
2019-04-07T18:34:25.507Z,22.07
2019-04-07T18:36:57.775Z,22.60
2019-04-07T18:39:30.157Z,23.70
2019-04-07T18:42:03.493Z,25.30
2019-04-07T18:44:40.020Z,21.48
2019-04-07T18:47:10.014Z,20.60
2019-04-07T18:49:42.932Z,18.95
2019-04-07T18:52:15.996Z,23.85
2019-04-07T18:54:48.727Z,20.30
2019-04-07T18:57:21.585Z,21.02
2019-04-07T19:00:01.022Z,22.73
2019-04-07T19:02:27.545Z,22.37
2019-04-07T19:05:01.599Z,22.75
2019-04-07T19:07:33.170Z,21.20
2019-04-07T19:10:10.640Z,21.82
2019-04-07T19:12:37.237Z,20.12
2019-04-07T19:15:11.618Z,21.73
2019-04-07T19:17:43.709Z,27.15
2019-04-07T19:20:15.873Z,28.27
2019-04-07T19:22:50.645Z,34.53
2019-04-07T19:25:21.563Z,38.95
2019-04-07T19:27:55.079Z,33.10
2019-04-07T19:30:28.162Z,34.15
2019-04-07T19:33:00.623Z,35.17
2019-04-07T19:35:37.581Z,28.75
2019-04-07T19:38:06.855Z,27.65
2019-04-07T19:40:40.147Z,27.67
2019-04-07T19:43:13.355Z,27.75
2019-04-07T19:45:45.593Z,28.17
2019-04-07T19:48:17.953Z,27.52
2019-04-07T19:50:50.834Z,30.27
2019-04-07T19:53:25.926Z,28.92
2019-04-07T19:55:58.044Z,28.70
2019-04-07T19:58:36.164Z,30.05
2019-04-07T20:01:03.848Z,28.17
2019-04-07T20:03:39.211Z,30.12
2019-04-07T20:06:09.237Z,31.20
2019-04-07T20:08:41.638Z,27.32
2019-04-07T20:11:13.966Z,28.75
2019-04-07T20:13:46.597Z,27.05
2019-04-07T20:16:19.723Z,29.75
2019-04-07T20:18:51.794Z,28.15
2019-04-07T20:21:34.835Z,24.50
2019-04-07T20:24:01.365Z,28.05
2019-04-07T20:26:31.115Z,31.25
2019-04-07T20:29:06.539Z,27.93
2019-04-07T20:31:36.798Z,25.77
2019-04-07T20:34:09.720Z,26.82
2019-04-07T20:36:42.334Z,27.32
2019-04-07T20:39:15.031Z,30.02
2019-04-07T20:41:48.272Z,29.63
2019-04-07T20:44:21.039Z,29.92
2019-04-07T20:46:57.655Z,28.32
2019-04-07T20:49:27.814Z,30.50
2019-04-07T20:52:00.667Z,28.27
2019-04-07T20:54:34.533Z,30.95
2019-04-07T20:57:07.151Z,29.30
2019-04-07T20:59:49.495Z,33.13
2019-04-07T21:02:13.122Z,29.63
2019-04-07T21:04:49.622Z,31.80
2019-04-07T21:07:18.930Z,36.63
2019-04-07T21:09:51.161Z,32.88
2019-04-07T21:12:23.229Z,36.45
2019-04-07T21:14:55.324Z,39.70
2019-04-07T21:17:28.766Z,42.10
2019-04-07T21:20:01.978Z,45.90
2019-04-07T21:22:33.964Z,46.95
2019-04-07T21:25:05.618Z,51.88
2019-04-07T21:27:38.672Z,51.90
2019-04-07T21:30:12.944Z,56.02
2019-04-07T21:32:48.549Z,51.98
2019-04-07T21:35:19.218Z,53.55
2019-04-07T21:37:51.927Z,54.20
2019-04-07T21:40:24.379Z,50.85
2019-04-07T21:42:56.637Z,49.38
2019-04-07T21:45:37.114Z,44.00
2019-04-07T21:48:01.902Z,43.73
2019-04-07T21:50:34.138Z,39.38
2019-04-07T21:53:06.620Z,38.25
2019-04-07T21:55:40.170Z,39.35
2019-04-07T21:58:12.715Z,34.98
2019-04-07T22:00:45.414Z,37.15
2019-04-07T22:03:18.969Z,36.15
2019-04-07T22:05:54.479Z,35.45
2019-04-07T22:08:28.465Z,34.08
2019-04-07T22:10:59.536Z,34.08
2019-04-07T22:13:32.878Z,32.73
2019-04-07T22:16:04.171Z,35.40
2019-04-07T22:18:37.504Z,33.98
2019-04-07T22:21:07.648Z,34.53
2019-04-07T22:23:38.262Z,32.35
2019-04-07T22:26:14.607Z,34.30
2019-04-07T22:28:41.531Z,33.60
